createdAt,value
2019-03-20T00:02:13.102Z,11.100000
2019-03-20T00:04:49.821Z,11.100000
2019-03-20T00:07:20.593Z,11.200000
2019-03-20T00:09:50.965Z,11.200000
2019-03-20T00:12:21.403Z,10.900000
2019-03-20T00:14:51.800Z,10.900000
2019-03-20T00:17:22.141Z,10.800000
2019-03-20T00:19:52.591Z,10.800000
2019-03-20T00:22:22.881Z,9.900000
2019-03-20T00:24:53.254Z,9.900000
2019-03-20T00:27:23.708Z,9.600000
2019-03-20T00:29:54.130Z,9.600000
2019-03-20T00:32:24.552Z,11.200000
2019-03-20T00:35:00.965Z,11.200000
2019-03-20T00:37:31.815Z,11.800000
2019-03-20T00:40:02.323Z,11.800000
2019-03-20T00:42:32.591Z,12.000000
2019-03-20T00:45:02.888Z,12.000000
2019-03-20T00:47:33.311Z,11.500000
2019-03-20T00:50:03.784Z,11.500000
2019-03-20T00:52:34.074Z,11.900000
2019-03-20T00:55:04.366Z,11.900000
2019-03-20T00:57:34.660Z,11.800000
2019-03-20T01:00:05.082Z,11.800000
2019-03-20T01:02:35.462Z,9.800000
2019-03-20T01:05:12.608Z,9.800000
2019-03-20T01:07:43.340Z,10.800000
2019-03-20T01:10:13.656Z,10.800000
2019-03-20T01:12:44.066Z,11.600000
2019-03-20T01:15:14.495Z,11.600000
2019-03-20T01:17:46.794Z,11.700000
2019-03-20T01:20:17.152Z,11.700000
2019-03-20T01:22:47.422Z,13.100000
2019-03-20T01:25:17.760Z,13.100000
2019-03-20T01:27:48.186Z,14.900000
2019-03-20T01:30:18.554Z,14.900000
2019-03-20T01:32:48.944Z,14.900000
2019-03-20T01:35:23.868Z,14.900000
2019-03-20T01:37:54.720Z,13.900000
2019-03-20T01:40:25.075Z,13.900000
2019-03-20T01:42:55.551Z,12.100000
2019-03-20T01:45:25.860Z,12.100000
2019-03-20T01:47:56.143Z,14.600000
2019-03-20T01:50:26.493Z,14.600000
2019-03-20T01:52:56.826Z,13.800000
2019-03-20T01:55:27.085Z,13.800000
2019-03-20T01:57:57.514Z,14.600000
2019-03-20T02:00:27.814Z,14.600000
2019-03-20T02:02:58.102Z,16.000000
2019-03-20T02:05:35.757Z,16.000000
2019-03-20T02:08:06.988Z,17.400000
2019-03-20T02:10:37.354Z,16.500000
2019-03-20T02:13:07.767Z,16.500000
2019-03-20T02:15:39.519Z,17.300000
2019-03-20T02:18:10.258Z,17.300000
2019-03-20T02:20:40.669Z,14.400000
2019-03-20T02:23:11.032Z,14.400000
2019-03-20T02:25:41.358Z,15.400000
2019-03-20T02:28:11.701Z,15.400000
2019-03-20T02:30:42.024Z,19.800000
2019-03-20T02:33:12.298Z,19.800000
2019-03-20T02:35:51.495Z,17.700000
2019-03-20T02:38:22.610Z,17.700000
2019-03-20T02:40:53.152Z,18.200000
2019-03-20T02:43:23.416Z,18.200000
2019-03-20T02:45:53.825Z,17.500000
2019-03-20T02:48:24.199Z,17.500000
2019-03-20T02:50:54.496Z,19.300000
2019-03-20T02:53:24.888Z,19.300000
2019-03-20T02:55:55.398Z,16.300000
2019-03-20T02:58:25.829Z,16.300000
2019-03-20T03:00:56.188Z,17.400000
2019-03-20T03:03:26.574Z,17.400000
2019-03-20T03:06:07.077Z,18.600000
2019-03-20T03:08:37.826Z,18.600000
2019-03-20T03:11:08.218Z,17.900000
2019-03-20T03:13:38.509Z,17.900000
2019-03-20T03:16:08.818Z,18.000000
2019-03-20T03:18:39.280Z,18.000000
2019-03-20T03:21:09.583Z,15.800000
2019-03-20T03:23:39.898Z,15.800000
2019-03-20T03:26:10.162Z,18.300000
2019-03-20T03:28:40.547Z,18.300000
2019-03-20T03:31:15.887Z,18.900000
2019-03-20T03:33:46.116Z,18.900000
2019-03-20T03:36:21.491Z,19.000000
2019-03-20T03:38:52.287Z,19.000000
2019-03-20T03:41:22.669Z,17.800000
2019-03-20T03:43:53.058Z,17.800000
2019-03-20T03:46:23.499Z,18.800000
2019-03-20T03:48:54.137Z,18.800000
2019-03-20T03:51:24.527Z,20.400000
2019-03-20T03:53:54.898Z,20.400000
2019-03-20T03:56:25.372Z,20.500000
2019-03-20T03:58:55.807Z,20.500000
2019-03-20T04:01:26.211Z,17.000000
2019-03-20T04:03:56.560Z,17.000000
2019-03-20T04:06:35.714Z,19.600000
2019-03-20T04:09:06.428Z,19.600000
2019-03-20T04:11:36.864Z,17.400000
2019-03-20T04:14:07.274Z,17.400000
2019-03-20T04:16:37.789Z,19.600000
2019-03-20T04:19:08.216Z,19.600000
2019-03-20T04:21:38.516Z,18.100000
2019-03-20T04:24:08.782Z,18.100000
2019-03-20T04:26:39.178Z,18.700000
2019-03-20T04:29:09.449Z,18.700000
2019-03-20T04:31:39.749Z,19.100000
2019-03-20T04:34:10.142Z,19.100000
2019-03-20T04:36:47.587Z,19.500000
2019-03-20T04:39:18.617Z,19.500000
2019-03-20T04:41:48.968Z,18.300000
2019-03-20T04:44:19.445Z,18.300000
2019-03-20T04:46:49.764Z,19.200000
2019-03-20T04:49:20.131Z,19.200000
2019-03-20T04:51:50.515Z,18.400000
2019-03-20T04:54:20.941Z,18.400000
2019-03-20T04:56:51.263Z,19.000000
2019-03-20T04:59:21.622Z,19.000000
2019-03-20T05:01:51.909Z,20.700000
2019-03-20T05:04:22.189Z,20.700000
2019-03-20T05:06:58.799Z,20.900000
2019-03-20T05:09:29.659Z,20.900000
2019-03-20T05:12:00.111Z,20.000000
2019-03-20T05:14:30.432Z,20.000000
2019-03-20T05:17:00.640Z,18.000000
2019-03-20T05:19:30.933Z,18.000000
2019-03-20T05:22:06.450Z,18.100000
2019-03-20T05:24:36.729Z,17.800000
2019-03-20T05:27:07.057Z,17.800000
2019-03-20T05:29:37.395Z,17.700000
2019-03-20T05:32:07.695Z,17.700000
2019-03-20T05:34:38.022Z,17.800000
2019-03-20T05:37:10.660Z,17.800000
2019-03-20T05:39:41.311Z,17.800000
2019-03-20T05:42:11.559Z,17.800000
2019-03-20T05:44:41.849Z,15.000000
2019-03-20T05:47:12.171Z,15.000000
2019-03-20T05:49:42.543Z,15.700000
2019-03-20T05:52:12.933Z,15.700000
2019-03-20T05:54:43.311Z,15.100000
2019-03-20T05:57:13.609Z,15.100000
2019-03-20T05:59:43.889Z,15.200000
2019-03-20T06:02:14.285Z,15.200000
2019-03-20T06:04:44.569Z,12.900000
2019-03-20T06:07:21.423Z,12.900000
2019-03-20T06:09:52.349Z,13.300000
2019-03-20T06:12:22.809Z,13.300000
2019-03-20T06:14:53.194Z,11.900000
2019-03-20T06:17:23.540Z,11.900000
2019-03-20T06:19:53.901Z,13.700000
2019-03-20T06:22:24.292Z,13.700000
2019-03-20T06:24:54.643Z,13.800000
2019-03-20T06:27:24.927Z,13.800000
2019-03-20T06:29:55.236Z,12.800000
2019-03-20T06:32:25.626Z,12.800000
2019-03-20T06:34:56.022Z,12.500000
2019-03-20T06:37:32.471Z,12.500000
2019-03-20T06:40:03.409Z,12.200000
2019-03-20T06:42:33.908Z,12.200000
2019-03-20T06:45:04.283Z,11.200000
2019-03-20T06:47:34.576Z,11.200000
2019-03-20T06:50:05.134Z,13.500000
2019-03-20T06:52:35.502Z,13.500000
2019-03-20T06:55:05.818Z,11.600000
2019-03-20T06:57:36.313Z,11.600000
2019-03-20T07:00:06.549Z,11.400000
2019-03-20T07:02:36.879Z,11.400000
2019-03-20T07:05:07.230Z,11.500000
2019-03-20T07:07:44.153Z,11.500000
2019-03-20T07:10:14.901Z,12.700000
2019-03-20T07:12:45.376Z,12.700000
2019-03-20T07:15:15.894Z,14.300000
2019-03-20T07:17:46.177Z,14.300000
2019-03-20T07:20:16.679Z,12.100000
2019-03-20T07:22:46.993Z,12.100000
2019-03-20T07:25:17.339Z,10.500000
2019-03-20T07:27:47.867Z,10.500000
2019-03-20T07:30:18.168Z,12.500000
2019-03-20T07:32:48.602Z,12.500000
2019-03-20T07:35:18.914Z,10.900000
2019-03-20T07:37:55.990Z,10.900000
2019-03-20T07:40:26.816Z,11.900000
2019-03-20T07:43:07.861Z,11.900000
2019-03-20T07:45:39.430Z,11.200000
2019-03-20T07:48:21.195Z,11.200000
2019-03-20T07:50:52.644Z,10.800000
2019-03-20T07:53:22.981Z,10.800000
2019-03-20T07:55:53.342Z,13.000000
2019-03-20T07:58:23.761Z,13.000000
2019-03-20T08:00:54.190Z,10.100000
2019-03-20T08:03:24.618Z,10.100000
2019-03-20T08:05:54.979Z,10.900000
2019-03-20T08:08:25.306Z,10.900000
2019-03-20T08:10:55.678Z,11.000000
2019-03-20T08:13:26.069Z,11.000000
2019-03-20T08:15:56.416Z,11.400000
2019-03-20T08:18:26.725Z,11.400000
2019-03-20T08:20:57.064Z,13.100000
2019-03-20T08:23:27.421Z,13.100000
2019-03-20T08:25:57.683Z,11.700000
2019-03-20T08:28:28.010Z,11.700000
2019-03-20T08:30:58.406Z,11.100000
2019-03-20T08:33:28.895Z,11.100000
2019-03-20T08:35:59.324Z,11.400000
2019-03-20T08:38:29.704Z,11.400000
2019-03-20T08:41:00.398Z,11.300000
2019-03-20T08:43:30.901Z,11.300000
2019-03-20T08:46:01.185Z,10.300000
2019-03-20T08:48:31.613Z,10.300000
2019-03-20T08:51:02.093Z,12.500000
2019-03-20T08:53:32.585Z,12.500000
2019-03-20T08:56:03.709Z,11.600000
2019-03-20T08:58:34.266Z,11.600000
2019-03-20T09:01:04.596Z,12.400000
2019-03-20T09:03:34.925Z,12.600000
2019-03-20T09:06:05.262Z,12.600000
2019-03-20T09:08:35.500Z,12.200000
2019-03-20T09:11:06.485Z,12.200000
2019-03-20T09:13:37.889Z,13.300000
2019-03-20T09:16:08.311Z,13.300000
2019-03-20T09:18:38.671Z,12.700000
2019-03-20T09:21:09.339Z,12.700000
2019-03-20T09:23:40.936Z,10.400000
2019-03-20T09:26:12.273Z,10.400000
2019-03-20T09:28:42.784Z,12.300000
2019-03-20T09:31:13.079Z,12.300000
2019-03-20T09:33:43.483Z,10.800000
2019-03-20T09:36:14.553Z,10.800000
2019-03-20T09:38:44.882Z,15.500000
2019-03-20T09:41:15.666Z,15.500000
2019-03-20T09:43:46.004Z,11.500000
2019-03-20T09:46:17.412Z,11.500000
2019-03-20T09:48:47.980Z,15.900000
2019-03-20T09:51:18.434Z,15.900000
2019-03-20T09:53:48.741Z,12.400000
2019-03-20T09:56:19.117Z,12.400000
2019-03-20T09:58:49.718Z,11.600000
2019-03-20T10:01:20.131Z,11.600000
2019-03-20T10:03:50.451Z,14.000000
2019-03-20T10:06:20.798Z,14.000000
2019-03-20T10:08:54.335Z,14.400000
2019-03-20T10:11:25.031Z,14.400000
2019-03-20T10:13:55.750Z,14.700000
2019-03-20T10:16:26.105Z,14.700000
2019-03-20T10:18:56.578Z,15.000000
2019-03-20T10:21:27.018Z,15.000000
2019-03-20T10:23:57.550Z,12.500000
2019-03-20T10:26:28.016Z,12.500000
2019-03-20T10:28:58.570Z,11.800000
2019-03-20T10:31:29.121Z,11.800000
2019-03-20T10:33:59.682Z,12.400000
2019-03-20T10:36:30.063Z,12.400000
2019-03-20T10:39:06.470Z,12.000000
2019-03-20T10:41:37.819Z,12.000000
2019-03-20T10:44:08.104Z,12.300000
2019-03-20T10:46:38.680Z,12.300000
2019-03-20T10:49:09.031Z,12.800000
2019-03-20T10:51:39.406Z,12.800000
2019-03-20T10:54:09.751Z,13.500000
2019-03-20T10:56:40.139Z,13.500000
2019-03-20T10:59:10.744Z,12.800000
2019-03-20T11:01:42.708Z,12.800000
2019-03-20T11:04:13.242Z,13.500000
2019-03-20T11:06:43.621Z,13.500000
2019-03-20T11:09:18.197Z,14.100000
2019-03-20T11:11:49.878Z,14.100000
2019-03-20T11:14:20.335Z,11.700000
2019-03-20T11:16:50.667Z,11.700000
2019-03-20T11:19:20.932Z,13.300000
2019-03-20T11:21:51.594Z,13.300000
2019-03-20T11:24:21.944Z,13.000000
2019-03-20T11:26:52.179Z,13.000000
2019-03-20T11:29:22.591Z,12.500000
2019-03-20T11:31:52.989Z,12.500000
2019-03-20T11:34:23.349Z,10.500000
2019-03-20T11:36:54.051Z,10.500000
2019-03-20T11:39:29.578Z,12.600000
2019-03-20T11:42:00.518Z,12.600000
2019-03-20T11:44:31.243Z,14.900000
2019-03-20T11:47:01.728Z,14.900000
2019-03-20T11:49:32.202Z,10.100000
2019-03-20T11:52:02.591Z,10.100000
2019-03-20T11:54:33.102Z,11.100000
2019-03-20T11:57:03.481Z,11.100000
2019-03-20T11:59:33.837Z,11.500000
2019-03-20T12:02:04.180Z,11.500000
2019-03-20T12:04:34.814Z,12.600000
2019-03-20T12:07:05.314Z,12.600000
2019-03-20T12:09:40.904Z,11.100000
2019-03-20T12:12:11.830Z,11.100000
2019-03-20T12:14:42.203Z,10.800000
2019-03-20T12:17:12.498Z,10.800000
2019-03-20T12:19:45.095Z,10.500000
2019-03-20T12:22:15.923Z,10.500000
2019-03-20T12:24:46.228Z,10.300000
2019-03-20T12:27:17.091Z,10.300000
2019-03-20T12:29:47.860Z,9.500000
2019-03-20T12:32:18.241Z,9.500000
2019-03-20T12:34:48.691Z,9.600000
2019-03-20T12:37:19.110Z,9.600000
2019-03-20T12:39:53.332Z,10.500000
2019-03-20T12:42:24.060Z,10.500000
2019-03-20T12:45:02.781Z,8.400000
2019-03-20T12:47:33.108Z,8.400000
2019-03-20T12:50:03.462Z,7.300000
2019-03-20T12:52:33.838Z,7.300000
2019-03-20T12:55:04.284Z,7.500000
2019-03-20T12:57:34.604Z,7.500000
2019-03-20T13:00:05.022Z,8.500000
2019-03-20T13:02:35.356Z,8.500000
2019-03-20T13:05:05.728Z,7.900000
2019-03-20T13:07:35.999Z,7.900000
2019-03-20T13:10:06.301Z,7.600000
2019-03-20T13:12:36.572Z,7.600000
2019-03-20T13:15:07.062Z,7.300000
2019-03-20T13:17:37.364Z,7.300000
2019-03-20T13:20:07.761Z,7.900000
2019-03-20T13:22:38.086Z,6.900000
2019-03-20T13:25:08.397Z,6.900000
2019-03-20T13:27:38.721Z,6.600000
2019-03-20T13:30:19.726Z,6.600000
2019-03-20T13:32:50.559Z,7.400000
2019-03-20T13:35:21.065Z,7.400000
2019-03-20T13:37:51.397Z,7.900000
2019-03-20T13:40:21.912Z,7.900000
2019-03-20T13:42:52.227Z,7.400000
2019-03-20T13:45:22.534Z,7.400000
2019-03-20T13:47:52.863Z,5.300000
2019-03-20T13:50:23.253Z,5.300000
2019-03-20T13:52:53.563Z,6.500000
2019-03-20T13:55:23.875Z,6.500000
2019-03-20T13:57:54.171Z,8.300000
2019-03-20T14:00:24.464Z,8.300000
2019-03-20T14:02:54.770Z,6.200000
2019-03-20T14:05:24.969Z,6.200000
2019-03-20T14:07:55.379Z,6.100000
2019-03-20T14:10:25.910Z,6.100000
2019-03-20T14:12:56.313Z,6.200000
2019-03-20T14:15:26.644Z,6.200000
2019-03-20T14:17:56.973Z,7.100000
2019-03-20T14:20:27.203Z,7.100000
2019-03-20T14:22:57.527Z,6.100000
2019-03-20T14:25:27.841Z,6.100000
2019-03-20T14:27:58.281Z,5.500000
2019-03-20T14:30:28.770Z,5.500000
2019-03-20T14:32:59.203Z,5.100000
2019-03-20T14:35:29.520Z,5.100000
2019-03-20T14:38:01.089Z,6.500000
2019-03-20T14:40:35.996Z,6.500000
2019-03-20T14:43:06.938Z,6.300000
2019-03-20T14:45:37.306Z,6.300000
2019-03-20T14:48:07.610Z,4.900000
2019-03-20T14:50:38.126Z,4.900000
2019-03-20T14:53:08.425Z,6.900000
2019-03-20T14:55:38.726Z,6.900000
2019-03-20T14:58:09.021Z,5.500000
2019-03-20T15:00:39.315Z,5.500000
2019-03-20T15:03:09.693Z,5.600000
2019-03-20T15:05:40.055Z,5.600000
2019-03-20T15:08:10.363Z,5.400000
2019-03-20T15:10:45.892Z,5.400000
2019-03-20T15:13:16.985Z,4.900000
2019-03-20T15:15:47.291Z,4.900000
2019-03-20T15:18:17.577Z,6.000000
2019-03-20T15:20:47.964Z,6.000000
2019-03-20T15:23:18.339Z,6.600000
2019-03-20T15:25:48.718Z,6.600000
2019-03-20T15:28:19.005Z,7.900000
2019-03-20T15:30:49.393Z,7.900000
2019-03-20T15:33:19.787Z,6.900000
2019-03-20T15:35:50.057Z,6.900000
2019-03-20T15:38:20.279Z,5.800000
2019-03-20T15:40:56.043Z,5.800000
2019-03-20T15:43:26.810Z,4.500000
2019-03-20T15:45:57.077Z,4.500000
2019-03-20T15:48:27.407Z,7.600000
2019-03-20T15:50:57.719Z,7.600000
2019-03-20T15:53:28.101Z,5.400000
2019-03-20T15:55:58.502Z,5.400000
2019-03-20T15:58:28.870Z,5.700000
2019-03-20T16:00:59.236Z,5.700000
2019-03-20T16:03:29.572Z,5.000000
2019-03-20T16:05:59.853Z,5.000000
2019-03-20T16:08:30.243Z,5.700000
2019-03-20T16:11:06.592Z,5.700000
2019-03-20T16:13:37.334Z,4.900000
2019-03-20T16:16:07.670Z,4.900000
2019-03-20T16:18:37.900Z,6.200000
2019-03-20T16:21:08.254Z,6.200000
2019-03-20T16:23:38.609Z,7.300000
2019-03-20T16:26:08.959Z,7.300000
2019-03-20T16:28:39.302Z,4.100000
2019-03-20T16:31:09.551Z,4.100000
2019-03-20T16:33:39.885Z,5.100000
2019-03-20T16:36:10.131Z,5.100000
2019-03-20T16:38:40.491Z,6.000000
2019-03-20T16:41:16.655Z,6.000000
2019-03-20T16:43:47.470Z,6.400000
2019-03-20T16:46:17.788Z,6.400000
2019-03-20T16:48:48.135Z,5.200000
2019-03-20T16:51:18.491Z,5.200000
2019-03-20T16:53:53.757Z,5.600000
2019-03-20T16:56:24.055Z,5.600000
2019-03-20T16:58:54.368Z,6.400000
2019-03-20T17:01:24.703Z,6.400000
2019-03-20T17:03:55.024Z,5.100000
2019-03-20T17:06:25.353Z,5.100000
2019-03-20T17:08:55.663Z,5.200000
2019-03-20T17:11:34.457Z,5.200000
2019-03-20T17:14:08.293Z,6.500000
2019-03-20T17:16:42.710Z,6.500000
2019-03-20T17:19:13.427Z,8.200000
2019-03-20T17:21:48.767Z,8.200000
2019-03-20T17:24:19.056Z,5.200000
2019-03-20T17:26:49.348Z,4.600000
2019-03-20T17:29:19.668Z,4.600000
2019-03-20T17:31:49.993Z,5.300000
2019-03-20T17:34:20.299Z,5.300000
2019-03-20T17:36:50.629Z,4.800000
2019-03-20T17:39:21.091Z,4.800000
2019-03-20T17:41:51.436Z,5.300000
2019-03-20T17:44:21.743Z,5.300000
2019-03-20T17:46:52.037Z,4.900000
2019-03-20T17:49:22.512Z,4.900000
2019-03-20T17:51:52.832Z,5.000000
2019-03-20T17:54:23.226Z,5.000000
2019-03-20T17:56:53.615Z,7.000000
2019-03-20T17:59:24.120Z,7.000000
2019-03-20T18:01:54.425Z,4.800000
2019-03-20T18:04:24.947Z,4.800000
2019-03-20T18:06:55.420Z,7.400000
2019-03-20T18:09:25.890Z,7.400000
2019-03-20T18:11:56.273Z,5.400000
2019-03-20T18:14:26.679Z,5.400000
2019-03-20T18:16:56.981Z,17.100000
2019-03-20T18:19:29.321Z,17.100000
2019-03-20T18:21:59.764Z,5.100000
2019-03-20T18:24:30.095Z,5.100000
2019-03-20T18:27:00.572Z,6.000000
2019-03-20T18:29:30.969Z,6.000000
2019-03-20T18:32:01.355Z,5.900000
2019-03-20T18:34:31.640Z,5.900000
2019-03-20T18:37:02.021Z,6.300000
2019-03-20T18:39:32.452Z,6.300000
2019-03-20T18:42:02.893Z,5.200000
2019-03-20T18:44:33.150Z,5.200000
2019-03-20T18:47:04.674Z,5.000000
2019-03-20T18:49:35.038Z,5.000000
2019-03-20T18:52:05.404Z,4.700000
2019-03-20T18:54:35.794Z,4.700000
2019-03-20T18:57:06.102Z,4.300000
2019-03-20T18:59:36.461Z,4.300000
2019-03-20T19:02:06.890Z,4.000000
2019-03-20T19:04:37.201Z,4.000000
2019-03-20T19:07:07.472Z,4.200000
2019-03-20T19:09:37.940Z,4.200000
2019-03-20T19:12:09.060Z,4.800000
2019-03-20T19:14:39.578Z,4.800000
2019-03-20T19:17:11.968Z,4.400000
2019-03-20T19:19:42.348Z,4.400000
2019-03-20T19:22:12.654Z,5.800000
2019-03-20T19:24:43.030Z,5.800000
2019-03-20T19:27:18.449Z,5.200000
2019-03-20T19:29:48.761Z,5.200000
2019-03-20T19:32:19.194Z,5.100000
2019-03-20T19:34:49.909Z,5.100000
2019-03-20T19:37:20.229Z,5.700000
2019-03-20T19:39:50.868Z,5.700000
2019-03-20T19:42:21.439Z,6.900000
2019-03-20T19:44:56.878Z,6.900000
2019-03-20T19:47:27.227Z,5.500000
2019-03-20T19:49:57.569Z,5.500000
2019-03-20T19:52:27.896Z,5.300000
2019-03-20T19:54:58.360Z,5.300000
2019-03-20T19:57:29.026Z,6.200000
2019-03-20T19:59:59.350Z,6.200000
2019-03-20T20:02:29.725Z,5.500000
2019-03-20T20:05:00.398Z,5.500000
2019-03-20T20:07:30.815Z,5.400000
2019-03-20T20:10:01.031Z,5.400000
2019-03-20T20:12:31.716Z,7.800000
2019-03-20T20:15:02.140Z,7.800000
2019-03-20T20:17:32.462Z,8.400000
2019-03-20T20:20:02.813Z,8.400000
2019-03-20T20:22:33.231Z,9.700000
2019-03-20T20:25:03.691Z,9.700000
2019-03-20T20:27:34.050Z,8.900000
2019-03-20T20:30:04.375Z,8.900000
2019-03-20T20:32:34.822Z,9.100000
2019-03-20T20:35:05.252Z,9.100000
2019-03-20T20:37:35.628Z,7.200000
2019-03-20T20:40:05.971Z,7.200000
2019-03-20T20:42:43.040Z,11.800000
2019-03-20T20:45:13.705Z,11.800000
2019-03-20T20:47:43.956Z,8.600000
2019-03-20T20:50:14.191Z,8.600000
2019-03-20T20:52:44.669Z,9.900000
2019-03-20T20:55:15.106Z,9.900000
2019-03-20T20:57:45.455Z,7.600000
2019-03-20T21:00:15.802Z,7.600000
2019-03-20T21:02:46.133Z,13.000000
2019-03-20T21:05:16.507Z,13.000000
2019-03-20T21:07:46.827Z,8.200000
2019-03-20T21:10:17.279Z,8.200000
2019-03-20T21:12:56.214Z,11.000000
2019-03-20T21:15:27.722Z,11.000000
2019-03-20T21:17:58.053Z,9.300000
2019-03-20T21:20:28.387Z,9.300000
2019-03-20T21:22:58.702Z,10.000000
2019-03-20T21:25:28.947Z,10.000000
2019-03-20T21:27:59.247Z,9.400000
2019-03-20T21:30:29.683Z,9.400000
2019-03-20T21:33:00.001Z,12.800000
2019-03-20T21:35:30.438Z,12.800000
2019-03-20T21:38:00.648Z,11.700000
2019-03-20T21:40:30.972Z,11.700000
2019-03-20T21:43:06.771Z,11.400000
2019-03-20T21:45:37.915Z,11.400000
2019-03-20T21:48:08.224Z,10.600000
2019-03-20T21:50:38.567Z,13.900000
2019-03-20T21:53:08.889Z,13.900000
2019-03-20T21:55:39.151Z,10.800000
2019-03-20T21:58:09.440Z,10.800000
2019-03-20T22:00:39.820Z,11.100000
2019-03-20T22:03:10.128Z,11.100000
2019-03-20T22:05:40.444Z,11.600000
2019-03-20T22:08:10.858Z,11.600000
2019-03-20T22:10:41.367Z,9.200000
2019-03-20T22:13:18.671Z,9.200000
2019-03-20T22:15:49.563Z,10.500000
2019-03-20T22:18:19.782Z,10.500000
2019-03-20T22:20:50.131Z,12.700000
2019-03-20T22:23:20.363Z,12.700000
2019-03-20T22:25:50.701Z,10.900000
2019-03-20T22:28:21.130Z,10.900000
2019-03-20T22:30:51.581Z,12.300000
2019-03-20T22:33:21.881Z,12.300000
2019-03-20T22:35:52.147Z,9.000000
2019-03-20T22:38:22.474Z,9.000000
2019-03-20T22:40:52.764Z,9.300000
2019-03-20T22:43:30.116Z,9.300000
2019-03-20T22:46:01.113Z,9.200000
2019-03-20T22:48:31.405Z,9.200000
2019-03-20T22:51:01.750Z,9.300000
2019-03-20T22:53:32.077Z,9.300000
2019-03-20T22:56:02.561Z,7.900000
2019-03-20T22:58:32.864Z,7.900000
2019-03-20T23:01:03.270Z,7.600000
2019-03-20T23:03:33.499Z,7.600000
2019-03-20T23:06:03.830Z,8.400000
2019-03-20T23:08:34.173Z,8.400000
2019-03-20T23:11:04.526Z,9.300000
2019-03-20T23:13:41.462Z,9.300000
2019-03-20T23:16:12.454Z,7.600000
2019-03-20T23:18:42.846Z,7.600000
2019-03-20T23:21:18.268Z,7.700000
2019-03-20T23:23:53.639Z,7.700000
2019-03-20T23:26:24.053Z,6.700000
2019-03-20T23:28:54.353Z,6.700000
2019-03-20T23:31:24.710Z,7.300000
2019-03-20T23:33:54.996Z,7.300000
2019-03-20T23:36:25.236Z,6.300000
2019-03-20T23:38:55.603Z,6.300000
2019-03-20T23:41:25.976Z,6.800000
2019-03-20T23:43:56.377Z,6.800000
2019-03-20T23:46:26.704Z,7.200000
2019-03-20T23:48:57.041Z,7.200000
2019-03-20T23:51:27.422Z,6.000000
2019-03-20T23:53:57.749Z,6.000000
2019-03-20T23:56:27.948Z,6.700000
2019-03-20T23:58:58.295Z,6.700000
